»·PEaware :: DAL1491 KSLC-KLAS

DAL1491 :: KSLC-KLAS

FLIGHT INFORMATION

Flight Status: Arrived
Operator:
Delta Air Lines
More flights by this operator :: More flights under this callsign
Pilot: Kaleb W. (11686)
Aircraft: BOEING 737-300
(B733)
More flights by this aircraft type
Origin: KSLC Salt Lake City Intl
United States
Destination: KLAS McCarran Intl
United States
More flights between these airports :: More routes between these airports
Route: +WEVIC6 EHK KSINO SITEE2
File this flight plan on PilotEdge
Remarks: RMK / POWERED BY SIMBRIEF
Altitude:
(Current/Filed)
36,000ft
Speed:
(Current/Filed)
428kts
Departed: 28-Apr-18 08:46 AM
Arrived: 28-Apr-18 09:50 AM
Distance/Time
Traveled:
319nm/1:04
Distance/Time
To Go:
Arrived

Flight Plot

Page will automatically refresh every two minutes.

Flight plan parsing failed; only flown route is shown


Map Options




Map Legend


Flown Route
Filed Route
Departure Airport
Arrival Airport
Navaid (VOR, NDB)
Fix

Horizontal Profiles

Position Reports

Time Latitude Longitude Heading Altitude Ground
Speed
28-Apr-18 08:20 40.785565 -111.978041 227 4225ft 0kts
28-Apr-18 08:21 40.785565 -111.978041 227 4225ft 0kts
28-Apr-18 08:22 40.785565 -111.978041 227 4225ft 0kts
28-Apr-18 08:23 40.785565 -111.978041 227 4225ft 0kts
28-Apr-18 08:24 40.785565 -111.978041 227 4225ft 0kts
28-Apr-18 08:25 40.785565 -111.978041 227 4225ft 0kts
28-Apr-18 08:26 40.785565 -111.978041 227 4225ft 0kts
28-Apr-18 08:27 40.785565 -111.978041 227 4225ft 0kts
28-Apr-18 08:28 40.785565 -111.978041 227 4225ft 0kts
28-Apr-18 08:29 40.785565 -111.978041 227 4225ft 0kts
28-Apr-18 08:30 40.785565 -111.978041 227 4225ft 0kts
28-Apr-18 08:31 40.785565 -111.978041 227 4225ft 0kts
28-Apr-18 08:32 40.785565 -111.978041 227 4225ft 0kts
28-Apr-18 08:33 40.785675 -111.977884 227 4225ft 2kts
28-Apr-18 08:34 40.785990 -111.977226 268 4224ft 2kts
28-Apr-18 08:35 40.785927 -111.976877 299 4224ft 0kts
28-Apr-18 08:36 40.785936 -111.976896 299 4224ft 0kts
28-Apr-18 08:37 40.785936 -111.976896 299 4224ft 0kts
28-Apr-18 08:38 40.786078 -111.976955 5 4224ft 4kts
28-Apr-18 08:39 40.788579 -111.976933 355 4223ft 10kts
28-Apr-18 08:40 40.793303 -111.977481 354 4221ft 21kts
28-Apr-18 08:41 40.799234 -111.978206 354 4225ft 20kts
28-Apr-18 08:42 40.805173 -111.978851 355 4226ft 25kts
28-Apr-18 08:43 40.806260 -111.978169 78 4226ft 0kts
28-Apr-18 08:44 40.805429 -111.976675 174 4229ft 9kts
28-Apr-18 08:45 40.774047 -111.973034 174 4740ft 187kts
28-Apr-18 08:46 40.714471 -111.966895 171 5656ft 268kts
28-Apr-18 08:47 40.640077 -111.962059 176 8035ft 285kts
28-Apr-18 08:48 40.560567 -111.957609 176 10685ft 298kts
28-Apr-18 08:49 40.477206 -111.952877 176 13288ft 309kts
28-Apr-18 08:50 40.390683 -111.947149 176 15413ft 319kts
28-Apr-18 08:51 40.301584 -111.940981 176 17793ft 331kts
28-Apr-18 08:52 40.209953 -111.948197 187 19947ft 343kts
28-Apr-18 08:53 40.115374 -111.962681 186 21909ft 353kts
28-Apr-18 08:54 40.015945 -111.977260 186 23026ft 386kts
28-Apr-18 08:55 39.906068 -111.993323 186 24429ft 408kts
28-Apr-18 08:56 39.793813 -112.009643 186 26061ft 419kts
28-Apr-18 08:57 39.677212 -112.026572 186 27170ft 440kts
28-Apr-18 08:58 39.556383 -112.044054 186 29105ft 436kts
28-Apr-18 08:59 39.436400 -112.061315 186 30651ft 437kts
28-Apr-18 09:00 39.317225 -112.078251 186 32208ft 434kts
28-Apr-18 09:01 39.198850 -112.094997 186 33519ft 431kts
28-Apr-18 09:02 39.087092 -112.136459 212 34547ft 428kts
28-Apr-18 09:03 38.984929 -112.213179 211 35478ft 427kts
28-Apr-18 09:04 38.885636 -112.285374 213 35943ft 413kts
28-Apr-18 09:05 38.787938 -112.356032 213 35934ft 407kts
28-Apr-18 09:06 38.689654 -112.427068 213 35948ft 408kts
28-Apr-18 09:07 38.591608 -112.497714 213 35945ft 407kts
28-Apr-18 09:08 38.493355 -112.568288 213 35946ft 408kts
28-Apr-18 09:09 38.395506 -112.638348 213 35945ft 408kts
28-Apr-18 09:10 38.298393 -112.707931 212 35948ft 408kts
28-Apr-18 09:11 38.200035 -112.777939 212 35948ft 408kts
28-Apr-18 09:12 38.101698 -112.847688 212 35947ft 407kts
28-Apr-18 09:13 38.020014 -112.905461 212 35953ft 405kts
28-Apr-18 09:14 37.922466 -112.974261 212 35977ft 404kts
28-Apr-18 09:15 37.826269 -113.041708 211 35939ft 413kts
28-Apr-18 09:16 37.727679 -113.118851 216 33924ft 415kts
28-Apr-18 09:17 37.635539 -113.197752 217 31802ft 398kts
28-Apr-18 09:18 37.546775 -113.273281 214 30118ft 368kts
28-Apr-18 09:19 37.465072 -113.342601 214 28092ft 351kts
28-Apr-18 09:20 37.386016 -113.409497 214 25943ft 339kts
28-Apr-18 09:21 37.310277 -113.473420 214 25467ft 334kts
28-Apr-18 09:22 37.233070 -113.538423 214 25492ft 336kts
28-Apr-18 09:23 37.155955 -113.603183 214 25490ft 336kts
28-Apr-18 09:24 37.079016 -113.667727 214 25478ft 337kts
28-Apr-18 09:25 37.001515 -113.732665 214 25490ft 337kts
28-Apr-18 09:26 36.923711 -113.797530 214 25490ft 338kts
28-Apr-18 09:27 36.846761 -113.861323 214 25491ft 338kts
28-Apr-18 09:28 36.768658 -113.926046 214 25490ft 338kts
28-Apr-18 09:29 36.690634 -113.990593 214 25030ft 342kts
28-Apr-18 09:30 36.611111 -114.056219 214 22233ft 340kts
28-Apr-18 09:31 36.549512 -114.135385 236 20142ft 313kts
28-Apr-18 09:32 36.504574 -114.223741 235 17872ft 300kts
28-Apr-18 09:33 36.461299 -114.308379 235 15518ft 294kts
28-Apr-18 09:34 36.417867 -114.392841 234 13188ft 300kts
28-Apr-18 09:35 36.374366 -114.477379 234 11997ft 270kts
28-Apr-18 09:36 36.333548 -114.556619 233 11269ft 275kts
28-Apr-18 09:37 36.283526 -114.623279 201 10070ft 265kts
28-Apr-18 09:38 36.219161 -114.658979 201 8570ft 254kts
28-Apr-18 09:39 36.155212 -114.691758 201 7173ft 246kts
28-Apr-18 09:40 36.092857 -114.716383 201 6211ft 236kts
28-Apr-18 09:41 36.033041 -114.746494 230 5204ft 231kts
28-Apr-18 09:42 36.029177 -114.816654 281 5023ft 212kts
28-Apr-18 09:43 36.039065 -114.888546 281 4978ft 225kts
28-Apr-18 09:44 36.057755 -114.951661 298 4978ft 169kts
28-Apr-18 09:45 36.071600 -115.001821 275 3492ft 146kts
28-Apr-18 09:46 36.073706 -115.050514 271 2374ft 144kts
28-Apr-18 09:47 36.073818 -115.098859 270 2368ft 143kts
28-Apr-18 09:48 36.073623 -115.143330 268 2094ft 78kts
28-Apr-18 09:49 36.074355 -115.149709 298 2117ft 0kts
28-Apr-18 09:50 36.074469 -115.149972 298 2118ft 4kts
28-Apr-18 09:51 36.076332 -115.151921 334 2122ft 12kts
28-Apr-18 09:52 36.076966 -115.152298 334 2122ft 0kts
28-Apr-18 09:53 36.078683 -115.152760 61 2120ft 16kts
28-Apr-18 09:54 36.078320 -115.144320 94 2091ft 32kts
28-Apr-18 09:55 36.079793 -115.140022 22 2074ft 0kts
28-Apr-18 09:56 36.079793 -115.140022 22 2074ft 0kts

Navigation Log

Ident Type
Flight plan parsing failed, navigation log unavailable